CPA507 RJBB-VHHH
Flight info
| Callsign | CPA507 |
|---|---|
| Flight time | 3h 21m |
| Altitude | 38000 |
| Route | OBLUR Y236 IVROG Y340 RUSUD Y75 IGBOD Y34 HKC Y50 IGMON A1 ELATO V522 ABBEY |
| Aircraft | A346/H-SDE2E3FGHIJ3J4J5M1RWXY/LB1D1 |
Departure
| Time | 2026-05-07 08:10 |
|---|---|
| Airport | Kansai International Airport (RJBB) |
Arrival
| Time | 2026-05-07 11:32 |
|---|---|
| Airport | Hong Kong International Airport (VHHH) |
| Time | Latitude | Longitude | Altitude | Speed | Heading |
|---|---|---|---|---|---|
| 2026-05-07 08:02 | 34.43110 | 135.23729 | 40 ft | 0 kts | 232° |
| 2026-05-07 08:04 | 34.43108 | 135.23724 | 40 ft | 1 kts | 232° |
| 2026-05-07 08:04 | 34.43096 | 135.23706 | 40 ft | 3 kts | 232° |
| 2026-05-07 08:05 | 34.43074 | 135.23673 | 40 ft | 6 kts | 231° |
| 2026-05-07 08:05 | 34.43035 | 135.23618 | 40 ft | 10 kts | 224° |
| 2026-05-07 08:05 | 34.42965 | 135.23593 | 40 ft | 11 kts | 158° |
| 2026-05-07 08:05 | 34.42891 | 135.23656 | 40 ft | 14 kts | 140° |
| 2026-05-07 08:06 | 34.42807 | 135.23738 | 40 ft | 16 kts | 141° |
| 2026-05-07 08:06 | 34.42710 | 135.23833 | 40 ft | 18 kts | 142° |
| 2026-05-07 08:06 | 34.42668 | 135.23961 | 40 ft | 18 kts | 64° |
| 2026-05-07 08:06 | 34.42750 | 135.24094 | 40 ft | 20 kts | 50° |
| 2026-05-07 08:07 | 34.42843 | 135.24229 | 40 ft | 22 kts | 50° |
| 2026-05-07 08:07 | 34.42947 | 135.24379 | 40 ft | 23 kts | 49° |
| 2026-05-07 08:07 | 34.43053 | 135.24539 | 40 ft | 25 kts | 52° |
| 2026-05-07 08:07 | 34.43169 | 135.24716 | 40 ft | 27 kts | 50° |
| 2026-05-07 08:08 | 34.43264 | 135.24858 | 40 ft | 10 kts | 52° |
| 2026-05-07 08:08 | 34.43328 | 135.24956 | 40 ft | 23 kts | 50° |
| 2026-05-07 08:08 | 34.43467 | 135.25159 | 40 ft | 33 kts | 50° |
| 2026-05-07 08:08 | 34.43614 | 135.25375 | 40 ft | 33 kts | 51° |
| 2026-05-07 08:09 | 34.43760 | 135.25595 | 40 ft | 30 kts | 51° |
| 2026-05-07 08:09 | 34.43822 | 135.25751 | 40 ft | 15 kts | 117° |
| 2026-05-07 08:09 | 34.43752 | 135.25832 | 40 ft | 13 kts | 151° |
| 2026-05-07 08:09 | 34.43668 | 135.25798 | 40 ft | 14 kts | 226° |
| 2026-05-07 08:10 | 34.43536 | 135.25603 | 40 ft | 63 kts | 232° |
| 2026-05-07 08:10 | 34.43104 | 135.24959 | 40 ft | 132 kts | 231° |
| 2026-05-07 08:10 | 34.42419 | 135.23941 | 303 ft | 164 kts | 232° |
| 2026-05-07 08:10 | 34.41759 | 135.22897 | 1078 ft | 155 kts | 230° |
| 2026-05-07 08:11 | 34.41073 | 135.21869 | 1660 ft | 161 kts | 230° |
| 2026-05-07 08:11 | 34.40464 | 135.20740 | 2215 ft | 169 kts | 238° |
| 2026-05-07 08:11 | 34.39862 | 135.19469 | 2710 ft | 182 kts | 236° |
| 2026-05-07 08:11 | 34.39174 | 135.18147 | 3311 ft | 190 kts | 236° |
| 2026-05-07 08:12 | 34.38406 | 135.16775 | 3827 ft | 206 kts | 234° |
| 2026-05-07 08:12 | 34.37548 | 135.15303 | 4303 ft | 224 kts | 234° |
| 2026-05-07 08:12 | 34.36622 | 135.13695 | 4796 ft | 245 kts | 235° |
| 2026-05-07 08:12 | 34.35660 | 135.11909 | 5455 ft | 260 kts | 244° |
| 2026-05-07 08:13 | 34.35309 | 135.09788 | 6257 ft | 269 kts | 273° |
| 2026-05-07 08:13 | 34.35617 | 135.08119 | 7042 ft | 270 kts | 287° |
| 2026-05-07 08:13 | 34.36230 | 135.05992 | 7998 ft | 273 kts | 286° |
| 2026-05-07 08:13 | 34.36837 | 135.03825 | 8893 ft | 277 kts | 286° |
| 2026-05-07 08:14 | 34.37448 | 135.01608 | 9780 ft | 280 kts | 285° |
| 2026-05-07 08:14 | 34.38057 | 134.99381 | 10565 ft | 286 kts | 285° |
| 2026-05-07 08:14 | 34.38694 | 134.97028 | 11057 ft | 304 kts | 285° |
| 2026-05-07 08:14 | 34.39364 | 134.94544 | 11480 ft | 322 kts | 284° |
| 2026-05-07 08:15 | 34.39690 | 134.91805 | 11826 ft | 338 kts | 266° |
| 2026-05-07 08:15 | 34.39172 | 134.88985 | 12178 ft | 355 kts | 247° |
| 2026-05-07 08:15 | 34.37942 | 134.86322 | 12635 ft | 369 kts | 239° |
| 2026-05-07 08:15 | 34.36647 | 134.83652 | 13339 ft | 374 kts | 240° |
| 2026-05-07 08:16 | 34.35331 | 134.80893 | 14122 ft | 378 kts | 241° |
| 2026-05-07 08:16 | 34.34033 | 134.78160 | 14833 ft | 382 kts | 241° |
| 2026-05-07 08:16 | 34.32707 | 134.75375 | 15562 ft | 385 kts | 241° |
| 2026-05-07 08:16 | 34.31368 | 134.72568 | 16267 ft | 388 kts | 241° |
| 2026-05-07 08:17 | 34.30008 | 134.69739 | 16937 ft | 392 kts | 240° |
| 2026-05-07 08:17 | 34.28534 | 134.66972 | 17571 ft | 397 kts | 237° |
| 2026-05-07 08:17 | 34.26894 | 134.64249 | 18222 ft | 401 kts | 234° |
| 2026-05-07 08:17 | 34.25141 | 134.61650 | 18868 ft | 405 kts | 232° |
| 2026-05-07 08:18 | 34.23316 | 134.59007 | 19512 ft | 409 kts | 232° |
| 2026-05-07 08:18 | 34.21493 | 134.56378 | 20144 ft | 412 kts | 232° |
| 2026-05-07 08:18 | 34.19644 | 134.53720 | 20759 ft | 416 kts | 232° |
| 2026-05-07 08:18 | 34.17793 | 134.51060 | 21356 ft | 420 kts | 232° |
| 2026-05-07 08:19 | 34.15916 | 134.48364 | 21952 ft | 424 kts | 232° |
| 2026-05-07 08:19 | 34.14018 | 134.45639 | 22554 ft | 427 kts | 232° |
| 2026-05-07 08:19 | 34.12081 | 134.42859 | 23144 ft | 431 kts | 232° |
| 2026-05-07 08:19 | 34.10162 | 134.40108 | 23721 ft | 434 kts | 232° |
| 2026-05-07 08:20 | 34.08221 | 134.37328 | 24291 ft | 437 kts | 232° |
| 2026-05-07 08:20 | 34.06255 | 134.34489 | 24881 ft | 440 kts | 231° |
| 2026-05-07 08:20 | 34.04303 | 134.31653 | 25446 ft | 443 kts | 231° |
| 2026-05-07 08:20 | 34.02322 | 134.28772 | 26008 ft | 446 kts | 231° |
| 2026-05-07 08:21 | 34.00343 | 134.25896 | 26534 ft | 450 kts | 231° |
| 2026-05-07 08:21 | 33.98348 | 134.23000 | 27055 ft | 453 kts | 231° |
| 2026-05-07 08:21 | 33.96340 | 134.20085 | 27565 ft | 455 kts | 231° |
| 2026-05-07 08:21 | 33.94312 | 134.17149 | 28072 ft | 458 kts | 231° |
| 2026-05-07 08:22 | 33.92270 | 134.14197 | 28563 ft | 461 kts | 231° |
| 2026-05-07 08:22 | 33.90229 | 134.11249 | 29176 ft | 460 kts | 231° |
| 2026-05-07 08:22 | 33.88183 | 134.08298 | 29893 ft | 457 kts | 231° |
| 2026-05-07 08:22 | 33.86160 | 134.05385 | 30581 ft | 455 kts | 231° |
| 2026-05-07 08:23 | 33.84156 | 134.02493 | 31208 ft | 453 kts | 232° |
| 2026-05-07 08:23 | 33.82142 | 133.99589 | 31828 ft | 452 kts | 232° |
| 2026-05-07 08:23 | 33.80139 | 133.96704 | 32425 ft | 450 kts | 232° |
| 2026-05-07 08:23 | 33.78159 | 133.93855 | 33017 ft | 448 kts | 232° |
| 2026-05-07 08:24 | 33.76223 | 133.90930 | 33659 ft | 446 kts | 234° |
| 2026-05-07 08:24 | 33.74406 | 133.87932 | 34301 ft | 444 kts | 236° |
| 2026-05-07 08:24 | 33.72621 | 133.84941 | 34953 ft | 442 kts | 236° |
| 2026-05-07 08:24 | 33.70837 | 133.81950 | 35586 ft | 439 kts | 236° |
| 2026-05-07 08:25 | 33.69066 | 133.78987 | 36192 ft | 437 kts | 236° |
| 2026-05-07 08:25 | 33.67303 | 133.76039 | 36698 ft | 436 kts | 236° |
| 2026-05-07 08:25 | 33.65538 | 133.73067 | 37062 ft | 437 kts | 237° |
| 2026-05-07 08:25 | 33.63890 | 133.70053 | 37361 ft | 438 kts | 239° |
| 2026-05-07 08:26 | 33.60875 | 133.63734 | 37900 ft | 440 kts | 242° |
| 2026-05-07 08:26 | 33.57885 | 133.57292 | 37945 ft | 442 kts | 242° |
| 2026-05-07 08:27 | 33.54897 | 133.50858 | 37939 ft | 443 kts | 242° |
| 2026-05-07 08:27 | 33.51911 | 133.44435 | 37935 ft | 443 kts | 242° |
| 2026-05-07 08:28 | 33.48914 | 133.37999 | 37932 ft | 444 kts | 242° |
| 2026-05-07 08:28 | 33.45916 | 133.31572 | 37935 ft | 443 kts | 242° |
| 2026-05-07 08:29 | 33.42905 | 133.25133 | 37932 ft | 443 kts | 242° |
| 2026-05-07 08:29 | 33.39909 | 133.18733 | 37936 ft | 444 kts | 242° |
| 2026-05-07 08:30 | 33.36881 | 133.12274 | 37946 ft | 444 kts | 242° |
| 2026-05-07 08:30 | 33.33868 | 133.05861 | 37950 ft | 444 kts | 242° |
| 2026-05-07 08:31 | 33.30854 | 132.99455 | 37962 ft | 444 kts | 242° |
| 2026-05-07 08:31 | 33.27828 | 132.93039 | 37963 ft | 443 kts | 242° |
| 2026-05-07 08:32 | 33.24802 | 132.86626 | 37959 ft | 444 kts | 242° |
| 2026-05-07 08:32 | 33.21797 | 132.80267 | 37952 ft | 443 kts | 242° |
| 2026-05-07 08:33 | 33.18770 | 132.73881 | 37941 ft | 443 kts | 242° |
| 2026-05-07 08:33 | 33.15493 | 132.67627 | 37933 ft | 445 kts | 237° |
| 2026-05-07 08:34 | 33.11942 | 132.61589 | 37930 ft | 444 kts | 237° |
| 2026-05-07 08:34 | 33.08409 | 132.55580 | 37929 ft | 444 kts | 237° |
| 2026-05-07 08:35 | 33.04868 | 132.49571 | 37926 ft | 444 kts | 237° |
| 2026-05-07 08:35 | 33.01318 | 132.43559 | 37926 ft | 444 kts | 236° |
| 2026-05-07 08:36 | 32.97714 | 132.37613 | 37926 ft | 445 kts | 234° |
| 2026-05-07 08:36 | 32.93798 | 132.31957 | 37928 ft | 444 kts | 232° |
| 2026-05-07 08:37 | 32.89840 | 132.26296 | 37927 ft | 445 kts | 232° |
| 2026-05-07 08:37 | 32.85894 | 132.20659 | 37927 ft | 445 kts | 232° |
| 2026-05-07 08:38 | 32.81945 | 132.15027 | 37927 ft | 444 kts | 232° |
| 2026-05-07 08:38 | 32.77983 | 132.09383 | 37927 ft | 444 kts | 232° |
| 2026-05-07 08:39 | 32.74029 | 132.03760 | 37928 ft | 444 kts | 232° |
| 2026-05-07 08:39 | 32.70089 | 131.98166 | 37926 ft | 443 kts | 232° |
| 2026-05-07 08:40 | 32.66122 | 131.92537 | 37928 ft | 443 kts | 232° |
| 2026-05-07 08:40 | 32.62170 | 131.86935 | 37931 ft | 444 kts | 232° |
| 2026-05-07 08:41 | 32.58224 | 131.81360 | 37933 ft | 443 kts | 232° |
| 2026-05-07 08:41 | 32.54253 | 131.75769 | 37931 ft | 444 kts | 232° |
| 2026-05-07 08:42 | 32.50280 | 131.70178 | 37926 ft | 443 kts | 232° |
| 2026-05-07 08:42 | 32.46320 | 131.64604 | 37925 ft | 444 kts | 232° |
| 2026-05-07 08:43 | 32.42341 | 131.59015 | 37928 ft | 444 kts | 232° |
| 2026-05-07 08:43 | 32.38391 | 131.53471 | 37932 ft | 444 kts | 232° |
| 2026-05-07 08:44 | 32.34411 | 131.47894 | 37936 ft | 442 kts | 232° |
| 2026-05-07 08:44 | 32.30461 | 131.42369 | 37938 ft | 443 kts | 232° |
| 2026-05-07 08:45 | 32.26494 | 131.36822 | 37940 ft | 442 kts | 232° |
| 2026-05-07 08:45 | 32.22506 | 131.31259 | 37942 ft | 443 kts | 232° |
| 2026-05-07 08:46 | 32.18552 | 131.25749 | 37941 ft | 442 kts | 232° |
| 2026-05-07 08:46 | 32.14571 | 131.20209 | 37943 ft | 442 kts | 232° |
| 2026-05-07 08:47 | 32.10601 | 131.14688 | 37943 ft | 441 kts | 232° |
| 2026-05-07 08:47 | 32.06644 | 131.09195 | 37943 ft | 441 kts | 232° |
| 2026-05-07 08:48 | 32.02690 | 131.03716 | 37939 ft | 441 kts | 232° |
| 2026-05-07 08:48 | 31.98713 | 130.98227 | 37932 ft | 440 kts | 232° |
| 2026-05-07 08:49 | 31.94740 | 130.92744 | 37929 ft | 441 kts | 232° |
| 2026-05-07 08:49 | 31.90745 | 130.87236 | 37928 ft | 441 kts | 232° |
| 2026-05-07 08:50 | 31.86800 | 130.81798 | 37932 ft | 441 kts | 232° |
| 2026-05-07 08:50 | 31.82833 | 130.76338 | 37929 ft | 440 kts | 233° |
| 2026-05-07 08:51 | 31.78845 | 130.70851 | 37928 ft | 440 kts | 232° |
| 2026-05-07 08:51 | 31.74891 | 130.65420 | 37932 ft | 440 kts | 232° |
| 2026-05-07 08:52 | 31.70896 | 130.59946 | 37933 ft | 440 kts | 233° |
| 2026-05-07 08:52 | 31.67106 | 130.54361 | 37934 ft | 439 kts | 235° |
| 2026-05-07 08:53 | 31.63381 | 130.48708 | 37931 ft | 439 kts | 235° |
| 2026-05-07 08:53 | 31.59653 | 130.43045 | 37928 ft | 439 kts | 236° |
| 2026-05-07 08:54 | 31.55916 | 130.37375 | 37924 ft | 439 kts | 236° |
| 2026-05-07 08:54 | 31.52211 | 130.31758 | 37925 ft | 439 kts | 235° |
| 2026-05-07 08:55 | 31.48464 | 130.26090 | 37927 ft | 438 kts | 235° |
| 2026-05-07 08:55 | 31.44742 | 130.20460 | 37932 ft | 438 kts | 235° |
| 2026-05-07 08:56 | 31.41025 | 130.14850 | 37934 ft | 438 kts | 236° |
| 2026-05-07 08:56 | 31.37307 | 130.09242 | 37941 ft | 437 kts | 236° |
| 2026-05-07 08:57 | 31.33584 | 130.03633 | 37945 ft | 438 kts | 235° |
| 2026-05-07 08:57 | 31.29855 | 129.98027 | 37946 ft | 438 kts | 235° |
| 2026-05-07 08:58 | 31.26119 | 129.92432 | 37941 ft | 437 kts | 236° |
| 2026-05-07 08:58 | 31.22383 | 129.86850 | 37946 ft | 437 kts | 236° |
| 2026-05-07 08:59 | 31.18634 | 129.81247 | 37946 ft | 437 kts | 236° |
| 2026-05-07 08:59 | 31.14921 | 129.75702 | 37944 ft | 438 kts | 235° |
| 2026-05-07 09:00 | 31.11163 | 129.70096 | 37944 ft | 438 kts | 236° |
| 2026-05-07 09:00 | 31.07411 | 129.64508 | 37944 ft | 438 kts | 236° |
| 2026-05-07 09:01 | 31.03652 | 129.58917 | 37945 ft | 438 kts | 236° |
| 2026-05-07 09:01 | 30.99917 | 129.53371 | 37946 ft | 437 kts | 236° |
| 2026-05-07 09:02 | 30.96172 | 129.47815 | 37943 ft | 437 kts | 236° |
| 2026-05-07 09:02 | 30.92424 | 129.42259 | 37947 ft | 436 kts | 236° |
| 2026-05-07 09:03 | 30.88677 | 129.36714 | 37946 ft | 437 kts | 236° |
| 2026-05-07 09:03 | 30.84916 | 129.31154 | 37943 ft | 437 kts | 236° |
| 2026-05-07 09:04 | 30.81174 | 129.25627 | 37943 ft | 438 kts | 236° |
| 2026-05-07 09:04 | 30.77398 | 129.20067 | 37946 ft | 437 kts | 236° |
| 2026-05-07 09:05 | 30.73691 | 129.14464 | 37945 ft | 438 kts | 236° |
| 2026-05-07 09:05 | 30.69989 | 129.08818 | 37944 ft | 438 kts | 237° |
| 2026-05-07 09:06 | 30.66297 | 129.03204 | 37948 ft | 439 kts | 237° |
| 2026-05-07 09:06 | 30.62591 | 128.97575 | 37945 ft | 439 kts | 237° |
| 2026-05-07 09:07 | 30.58901 | 128.91980 | 37948 ft | 439 kts | 237° |
| 2026-05-07 09:07 | 30.55171 | 128.86336 | 37947 ft | 440 kts | 237° |
| 2026-05-07 09:08 | 30.51460 | 128.80725 | 37948 ft | 441 kts | 237° |
| 2026-05-07 09:08 | 30.47725 | 128.75085 | 37946 ft | 442 kts | 237° |
| 2026-05-07 09:09 | 30.43972 | 128.69428 | 37947 ft | 442 kts | 237° |
| 2026-05-07 09:09 | 30.40224 | 128.63786 | 37947 ft | 442 kts | 236° |
| 2026-05-07 09:10 | 30.36501 | 128.58191 | 37944 ft | 442 kts | 237° |
| 2026-05-07 09:10 | 30.32736 | 128.52539 | 37942 ft | 443 kts | 236° |
| 2026-05-07 09:11 | 30.28987 | 128.46921 | 37946 ft | 443 kts | 236° |
| 2026-05-07 09:11 | 30.25225 | 128.41292 | 37942 ft | 443 kts | 237° |
| 2026-05-07 09:12 | 30.21456 | 128.35655 | 37945 ft | 444 kts | 236° |
| 2026-05-07 09:12 | 30.17674 | 128.30009 | 37948 ft | 444 kts | 236° |
| 2026-05-07 09:13 | 30.13889 | 128.24371 | 37942 ft | 445 kts | 236° |
| 2026-05-07 09:13 | 30.10108 | 128.18742 | 37940 ft | 445 kts | 236° |
| 2026-05-07 09:14 | 30.06301 | 128.13080 | 37946 ft | 446 kts | 236° |
| 2026-05-07 09:14 | 30.02505 | 128.07445 | 37943 ft | 446 kts | 236° |
| 2026-05-07 09:15 | 29.98717 | 128.01825 | 37939 ft | 446 kts | 236° |
| 2026-05-07 09:15 | 29.94910 | 127.96188 | 37943 ft | 446 kts | 236° |
| 2026-05-07 09:16 | 29.91088 | 127.90534 | 37945 ft | 446 kts | 236° |
| 2026-05-07 09:16 | 29.87294 | 127.84935 | 37943 ft | 446 kts | 236° |
| 2026-05-07 09:17 | 29.83281 | 127.79446 | 37946 ft | 446 kts | 234° |
| 2026-05-07 09:17 | 29.79259 | 127.74048 | 37943 ft | 446 kts | 234° |
| 2026-05-07 09:18 | 29.75252 | 127.68667 | 37944 ft | 446 kts | 234° |
| 2026-05-07 09:18 | 29.71196 | 127.63229 | 37946 ft | 446 kts | 234° |
| 2026-05-07 09:19 | 29.67187 | 127.57861 | 37951 ft | 446 kts | 234° |
| 2026-05-07 09:19 | 29.63152 | 127.52460 | 37956 ft | 446 kts | 234° |
| 2026-05-07 09:20 | 29.59095 | 127.47033 | 37963 ft | 446 kts | 235° |
| 2026-05-07 09:20 | 29.55252 | 127.41529 | 37964 ft | 444 kts | 237° |
| 2026-05-07 09:21 | 29.51410 | 127.35983 | 37965 ft | 445 kts | 237° |
| 2026-05-07 09:21 | 29.47549 | 127.30405 | 37969 ft | 445 kts | 237° |
| 2026-05-07 09:22 | 29.43703 | 127.24854 | 37966 ft | 445 kts | 237° |
| 2026-05-07 09:22 | 29.39871 | 127.19329 | 37966 ft | 445 kts | 237° |
| 2026-05-07 09:23 | 29.36026 | 127.13788 | 37967 ft | 445 kts | 237° |
| 2026-05-07 09:23 | 29.32172 | 127.08244 | 37967 ft | 444 kts | 237° |
| 2026-05-07 09:24 | 29.28314 | 127.02705 | 37967 ft | 445 kts | 237° |
| 2026-05-07 09:24 | 29.24465 | 126.97182 | 37967 ft | 446 kts | 237° |
| 2026-05-07 09:25 | 29.20612 | 126.91659 | 37959 ft | 444 kts | 237° |
| 2026-05-07 09:25 | 29.16755 | 126.86138 | 37950 ft | 444 kts | 237° |
| 2026-05-07 09:26 | 29.12892 | 126.80617 | 37946 ft | 444 kts | 237° |
| 2026-05-07 09:26 | 29.09030 | 126.75104 | 37946 ft | 444 kts | 237° |
| 2026-05-07 09:27 | 29.05198 | 126.69642 | 37946 ft | 444 kts | 237° |
| 2026-05-07 09:28 | 28.99421 | 126.61411 | 37946 ft | 444 kts | 238° |
| 2026-05-07 09:28 | 28.95533 | 126.55942 | 37948 ft | 444 kts | 236° |
| 2026-05-07 09:29 | 28.91537 | 126.50571 | 37946 ft | 445 kts | 236° |
| 2026-05-07 09:29 | 28.87543 | 126.45214 | 37946 ft | 445 kts | 237° |
| 2026-05-07 09:30 | 28.83546 | 126.39834 | 37947 ft | 443 kts | 236° |
| 2026-05-07 09:30 | 28.79574 | 126.34493 | 37947 ft | 444 kts | 236° |
| 2026-05-07 09:31 | 28.75559 | 126.29095 | 37945 ft | 445 kts | 236° |
| 2026-05-07 09:31 | 28.71552 | 126.23715 | 37947 ft | 447 kts | 236° |
| 2026-05-07 09:32 | 28.67534 | 126.18316 | 37946 ft | 446 kts | 236° |
| 2026-05-07 09:32 | 28.63529 | 126.12958 | 37945 ft | 445 kts | 237° |
| 2026-05-07 09:33 | 28.59628 | 126.07512 | 37946 ft | 444 kts | 238° |
| 2026-05-07 09:33 | 28.55763 | 126.02036 | 37946 ft | 445 kts | 238° |
| 2026-05-07 09:34 | 28.51897 | 125.96577 | 37946 ft | 444 kts | 238° |
| 2026-05-07 09:34 | 28.48023 | 125.91125 | 37945 ft | 444 kts | 238° |
| 2026-05-07 09:35 | 28.44138 | 125.85664 | 37944 ft | 444 kts | 238° |
| 2026-05-07 09:35 | 28.40280 | 125.80246 | 37944 ft | 445 kts | 238° |
| 2026-05-07 09:36 | 28.36389 | 125.74796 | 37942 ft | 446 kts | 238° |
| 2026-05-07 09:36 | 28.32507 | 125.69357 | 37943 ft | 445 kts | 238° |
| 2026-05-07 09:37 | 28.28607 | 125.63905 | 37941 ft | 444 kts | 238° |
| 2026-05-07 09:37 | 28.24707 | 125.58463 | 37940 ft | 443 kts | 238° |
| 2026-05-07 09:38 | 28.20840 | 125.53072 | 37938 ft | 442 kts | 238° |
| 2026-05-07 09:38 | 28.16954 | 125.47660 | 37937 ft | 444 kts | 238° |
| 2026-05-07 09:39 | 28.13059 | 125.42237 | 37936 ft | 444 kts | 239° |
| 2026-05-07 09:39 | 28.09168 | 125.36831 | 37936 ft | 442 kts | 238° |
| 2026-05-07 09:40 | 28.05274 | 125.31433 | 37938 ft | 442 kts | 237° |
| 2026-05-07 09:40 | 28.01381 | 125.26035 | 37933 ft | 441 kts | 238° |
| 2026-05-07 09:41 | 27.97568 | 125.20760 | 37931 ft | 443 kts | 238° |
| 2026-05-07 09:41 | 27.93649 | 125.15346 | 37932 ft | 442 kts | 238° |
| 2026-05-07 09:42 | 27.89765 | 125.09980 | 37929 ft | 443 kts | 238° |
| 2026-05-07 09:42 | 27.85842 | 125.04569 | 37930 ft | 444 kts | 238° |
| 2026-05-07 09:43 | 27.81941 | 124.99197 | 37935 ft | 442 kts | 238° |
| 2026-05-07 09:43 | 27.78050 | 124.93840 | 37940 ft | 442 kts | 238° |
| 2026-05-07 09:44 | 27.74143 | 124.88475 | 37945 ft | 443 kts | 238° |
| 2026-05-07 09:44 | 27.70244 | 124.83118 | 37944 ft | 443 kts | 238° |
| 2026-05-07 09:45 | 27.66340 | 124.77764 | 37944 ft | 445 kts | 239° |
| 2026-05-07 09:45 | 27.62433 | 124.72413 | 37942 ft | 442 kts | 239° |
| 2026-05-07 09:46 | 27.58491 | 124.67032 | 37941 ft | 444 kts | 238° |
| 2026-05-07 09:46 | 27.54579 | 124.61695 | 37940 ft | 444 kts | 238° |
| 2026-05-07 09:47 | 27.50656 | 124.56345 | 37935 ft | 445 kts | 239° |
| 2026-05-07 09:47 | 27.46719 | 124.50973 | 37934 ft | 443 kts | 238° |
| 2026-05-07 09:48 | 27.42789 | 124.45618 | 37932 ft | 445 kts | 239° |
| 2026-05-07 09:48 | 27.38850 | 124.40257 | 37929 ft | 444 kts | 238° |
| 2026-05-07 09:49 | 27.34918 | 124.34908 | 37923 ft | 445 kts | 238° |
| 2026-05-07 09:49 | 27.30976 | 124.29560 | 37922 ft | 445 kts | 238° |
| 2026-05-07 09:50 | 27.27040 | 124.24220 | 37913 ft | 445 kts | 238° |
| 2026-05-07 09:50 | 27.23097 | 124.18877 | 37917 ft | 445 kts | 238° |
| 2026-05-07 09:51 | 27.19151 | 124.13538 | 37914 ft | 445 kts | 238° |
| 2026-05-07 09:51 | 27.15171 | 124.08154 | 37912 ft | 447 kts | 238° |
| 2026-05-07 09:52 | 27.11208 | 124.02801 | 37914 ft | 447 kts | 238° |
| 2026-05-07 09:52 | 27.07213 | 123.97443 | 37922 ft | 447 kts | 237° |
| 2026-05-07 09:53 | 27.03213 | 123.92151 | 37927 ft | 448 kts | 238° |
| 2026-05-07 09:53 | 26.99204 | 123.86837 | 37924 ft | 448 kts | 237° |
| 2026-05-07 09:54 | 26.95172 | 123.81494 | 37918 ft | 451 kts | 237° |
| 2026-05-07 09:54 | 26.91151 | 123.76164 | 37916 ft | 450 kts | 237° |
| 2026-05-07 09:55 | 26.87102 | 123.70809 | 37917 ft | 450 kts | 238° |
| 2026-05-07 09:55 | 26.83071 | 123.65481 | 37909 ft | 450 kts | 238° |
| 2026-05-07 09:56 | 26.79017 | 123.60125 | 37911 ft | 450 kts | 238° |
| 2026-05-07 09:56 | 26.74962 | 123.54772 | 37916 ft | 453 kts | 237° |
| 2026-05-07 09:57 | 26.70901 | 123.49419 | 37917 ft | 452 kts | 237° |
| 2026-05-07 09:57 | 26.66843 | 123.44079 | 37913 ft | 452 kts | 237° |
| 2026-05-07 09:58 | 26.62779 | 123.38750 | 37907 ft | 452 kts | 237° |
| 2026-05-07 09:58 | 26.58667 | 123.33369 | 37919 ft | 455 kts | 237° |
| 2026-05-07 09:59 | 26.54582 | 123.28019 | 37907 ft | 456 kts | 237° |
| 2026-05-07 09:59 | 26.50687 | 123.22925 | 37906 ft | 457 kts | 237° |
| 2026-05-07 10:00 | 26.46568 | 123.17538 | 37904 ft | 456 kts | 237° |
| 2026-05-07 10:00 | 26.42451 | 123.12160 | 37904 ft | 457 kts | 237° |
| 2026-05-07 10:01 | 26.38355 | 123.06812 | 37900 ft | 456 kts | 237° |
| 2026-05-07 10:01 | 26.34206 | 123.01403 | 37906 ft | 458 kts | 237° |
| 2026-05-07 10:02 | 26.30073 | 122.96042 | 37905 ft | 458 kts | 237° |
| 2026-05-07 10:02 | 26.25942 | 122.90691 | 37907 ft | 457 kts | 237° |
| 2026-05-07 10:03 | 26.21782 | 122.85300 | 37910 ft | 459 kts | 237° |
| 2026-05-07 10:03 | 26.17631 | 122.79921 | 37911 ft | 460 kts | 237° |
| 2026-05-07 10:04 | 26.13465 | 122.74531 | 37915 ft | 459 kts | 237° |
| 2026-05-07 10:04 | 26.09298 | 122.69143 | 37911 ft | 461 kts | 237° |
| 2026-05-07 10:05 | 26.05103 | 122.63723 | 37910 ft | 462 kts | 237° |
| 2026-05-07 10:05 | 26.00945 | 122.58357 | 37905 ft | 461 kts | 237° |
| 2026-05-07 10:06 | 25.96753 | 122.52951 | 37909 ft | 461 kts | 237° |
| 2026-05-07 10:06 | 25.92560 | 122.47557 | 37902 ft | 463 kts | 237° |
| 2026-05-07 10:07 | 25.88345 | 122.42157 | 37902 ft | 462 kts | 237° |
| 2026-05-07 10:07 | 25.84142 | 122.36768 | 37901 ft | 462 kts | 237° |
| 2026-05-07 10:08 | 25.79961 | 122.31406 | 37908 ft | 463 kts | 236° |
| 2026-05-07 10:08 | 25.75739 | 122.25996 | 37905 ft | 462 kts | 236° |
| 2026-05-07 10:09 | 25.71525 | 122.20601 | 37904 ft | 463 kts | 236° |
| 2026-05-07 10:09 | 25.67322 | 122.15222 | 37904 ft | 464 kts | 236° |
| 2026-05-07 10:10 | 25.63084 | 122.09806 | 37902 ft | 464 kts | 236° |
| 2026-05-07 10:10 | 25.58863 | 122.04414 | 37902 ft | 466 kts | 236° |
| 2026-05-07 10:11 | 25.54619 | 121.99002 | 37905 ft | 467 kts | 236° |
| 2026-05-07 10:11 | 25.50341 | 121.93581 | 37898 ft | 468 kts | 236° |
| 2026-05-07 10:12 | 25.46064 | 121.88160 | 37903 ft | 468 kts | 236° |
| 2026-05-07 10:12 | 25.41792 | 121.82745 | 37901 ft | 468 kts | 236° |
| 2026-05-07 10:13 | 25.37501 | 121.77311 | 37902 ft | 469 kts | 236° |
| 2026-05-07 10:13 | 25.33215 | 121.71886 | 37903 ft | 469 kts | 236° |
| 2026-05-07 10:14 | 25.28935 | 121.66473 | 37903 ft | 469 kts | 236° |
| 2026-05-07 10:14 | 25.24644 | 121.61056 | 37908 ft | 469 kts | 236° |
| 2026-05-07 10:15 | 25.20362 | 121.55647 | 37912 ft | 470 kts | 236° |
| 2026-05-07 10:15 | 25.16053 | 121.50198 | 37915 ft | 469 kts | 237° |
| 2026-05-07 10:16 | 25.11837 | 121.44732 | 37910 ft | 469 kts | 237° |
| 2026-05-07 10:16 | 25.07624 | 121.39257 | 37906 ft | 469 kts | 237° |
| 2026-05-07 10:17 | 25.03398 | 121.33781 | 37910 ft | 470 kts | 236° |
| 2026-05-07 10:17 | 24.99132 | 121.28262 | 37912 ft | 472 kts | 236° |
| 2026-05-07 10:18 | 24.94877 | 121.22761 | 37917 ft | 472 kts | 236° |
| 2026-05-07 10:18 | 24.90621 | 121.17265 | 37928 ft | 472 kts | 236° |
| 2026-05-07 10:19 | 24.86386 | 121.11797 | 37934 ft | 471 kts | 236° |
| 2026-05-07 10:19 | 24.82108 | 121.06293 | 37931 ft | 471 kts | 236° |
| 2026-05-07 10:20 | 24.77869 | 121.00852 | 37929 ft | 471 kts | 236° |
| 2026-05-07 10:20 | 24.73616 | 120.95390 | 37926 ft | 472 kts | 236° |
| 2026-05-07 10:21 | 24.69330 | 120.89883 | 37945 ft | 472 kts | 236° |
| 2026-05-07 10:21 | 24.65077 | 120.84426 | 37951 ft | 472 kts | 236° |
| 2026-05-07 10:22 | 24.60804 | 120.78943 | 37944 ft | 472 kts | 236° |
| 2026-05-07 10:22 | 24.56525 | 120.73474 | 37930 ft | 473 kts | 235° |
| 2026-05-07 10:23 | 24.51992 | 120.68218 | 37941 ft | 475 kts | 233° |
| 2026-05-07 10:23 | 24.47427 | 120.63018 | 37940 ft | 476 kts | 233° |
| 2026-05-07 10:24 | 24.42823 | 120.57772 | 37938 ft | 475 kts | 232° |
| 2026-05-07 10:24 | 24.38243 | 120.52554 | 37937 ft | 476 kts | 232° |
| 2026-05-07 10:25 | 24.33677 | 120.47353 | 37933 ft | 476 kts | 233° |
| 2026-05-07 10:25 | 24.29102 | 120.42144 | 37929 ft | 476 kts | 232° |
| 2026-05-07 10:26 | 24.24504 | 120.36919 | 37922 ft | 476 kts | 232° |
| 2026-05-07 10:26 | 24.19929 | 120.31722 | 37920 ft | 476 kts | 232° |
| 2026-05-07 10:27 | 24.15303 | 120.26490 | 37914 ft | 476 kts | 232° |
| 2026-05-07 10:27 | 24.10709 | 120.21294 | 37907 ft | 477 kts | 232° |
| 2026-05-07 10:28 | 24.06102 | 120.16079 | 37898 ft | 478 kts | 232° |
| 2026-05-07 10:28 | 24.01490 | 120.10867 | 37902 ft | 477 kts | 232° |
| 2026-05-07 10:29 | 23.96865 | 120.05663 | 37907 ft | 476 kts | 232° |
| 2026-05-07 10:29 | 23.92239 | 120.00462 | 37903 ft | 476 kts | 231° |
| 2026-05-07 10:30 | 23.85321 | 119.92684 | 37892 ft | 477 kts | 231° |
| 2026-05-07 10:30 | 23.80724 | 119.87517 | 37902 ft | 476 kts | 231° |
| 2026-05-07 10:31 | 23.76095 | 119.82319 | 37903 ft | 477 kts | 231° |
| 2026-05-07 10:31 | 23.71487 | 119.77147 | 37903 ft | 476 kts | 231° |
| 2026-05-07 10:32 | 23.66860 | 119.71958 | 37906 ft | 478 kts | 231° |
| 2026-05-07 10:32 | 23.62297 | 119.66766 | 37904 ft | 476 kts | 233° |
| 2026-05-07 10:33 | 23.58128 | 119.61152 | 37913 ft | 472 kts | 239° |
| 2026-05-07 10:33 | 23.54537 | 119.55225 | 37907 ft | 469 kts | 243° |
| 2026-05-07 10:34 | 23.51077 | 119.49241 | 37905 ft | 470 kts | 243° |
| 2026-05-07 10:34 | 23.47579 | 119.43200 | 37905 ft | 471 kts | 243° |
| 2026-05-07 10:35 | 23.44092 | 119.37193 | 37904 ft | 471 kts | 243° |
| 2026-05-07 10:35 | 23.40602 | 119.31191 | 37906 ft | 471 kts | 242° |
| 2026-05-07 10:36 | 23.37105 | 119.25187 | 37901 ft | 471 kts | 242° |
| 2026-05-07 10:36 | 23.33587 | 119.19149 | 37904 ft | 472 kts | 242° |
| 2026-05-07 10:37 | 23.30068 | 119.13120 | 37904 ft | 472 kts | 242° |
| 2026-05-07 10:37 | 23.26563 | 119.07121 | 37902 ft | 473 kts | 242° |
| 2026-05-07 10:38 | 23.23029 | 119.01080 | 37905 ft | 474 kts | 242° |
| 2026-05-07 10:38 | 23.19502 | 118.95057 | 37904 ft | 474 kts | 242° |
| 2026-05-07 10:39 | 23.15962 | 118.89021 | 37906 ft | 474 kts | 242° |
| 2026-05-07 10:39 | 23.12419 | 118.82983 | 37905 ft | 473 kts | 242° |
| 2026-05-07 10:40 | 23.08888 | 118.76972 | 37905 ft | 473 kts | 242° |
| 2026-05-07 10:40 | 23.05360 | 118.70972 | 37905 ft | 474 kts | 242° |
| 2026-05-07 10:41 | 23.01825 | 118.64962 | 37904 ft | 474 kts | 242° |
| 2026-05-07 10:41 | 22.98289 | 118.58956 | 37906 ft | 474 kts | 242° |
| 2026-05-07 10:42 | 22.94731 | 118.52931 | 37905 ft | 474 kts | 242° |
| 2026-05-07 10:42 | 22.91146 | 118.46925 | 37904 ft | 475 kts | 242° |
| 2026-05-07 10:43 | 22.87568 | 118.40928 | 37908 ft | 474 kts | 242° |
| 2026-05-07 10:43 | 22.84035 | 118.35006 | 37910 ft | 474 kts | 242° |
| 2026-05-07 10:44 | 22.80426 | 118.28954 | 37911 ft | 475 kts | 242° |
| 2026-05-07 10:44 | 22.76846 | 118.22961 | 37912 ft | 475 kts | 242° |
| 2026-05-07 10:45 | 22.73271 | 118.16975 | 37909 ft | 475 kts | 242° |
| 2026-05-07 10:45 | 22.69680 | 118.10973 | 37907 ft | 475 kts | 242° |
| 2026-05-07 10:46 | 22.66092 | 118.04975 | 37906 ft | 475 kts | 242° |
| 2026-05-07 10:46 | 22.62519 | 117.99012 | 37903 ft | 473 kts | 242° |
| 2026-05-07 10:47 | 22.58926 | 117.93019 | 37907 ft | 474 kts | 242° |
| 2026-05-07 10:47 | 22.55366 | 117.87040 | 37905 ft | 474 kts | 242° |
| 2026-05-07 10:48 | 22.51814 | 117.81060 | 37909 ft | 474 kts | 242° |
| 2026-05-07 10:48 | 22.48266 | 117.75094 | 37911 ft | 474 kts | 242° |
| 2026-05-07 10:49 | 22.44687 | 117.69082 | 37907 ft | 473 kts | 242° |
| 2026-05-07 10:49 | 22.41146 | 117.63131 | 37912 ft | 474 kts | 242° |
| 2026-05-07 10:50 | 22.37693 | 117.57082 | 37907 ft | 471 kts | 247° |
| 2026-05-07 10:50 | 22.35123 | 117.50666 | 37910 ft | 464 kts | 256° |
| 2026-05-07 10:51 | 22.33578 | 117.43980 | 37909 ft | 459 kts | 265° |
| 2026-05-07 10:51 | 22.33040 | 117.37171 | 37909 ft | 455 kts | 272° |
| 2026-05-07 10:52 | 22.32917 | 117.30341 | 37914 ft | 455 kts | 272° |
| 2026-05-07 10:52 | 22.32804 | 117.23563 | 37905 ft | 454 kts | 272° |
| 2026-05-07 10:53 | 22.32680 | 117.16728 | 37913 ft | 454 kts | 272° |
| 2026-05-07 10:53 | 22.32551 | 117.09946 | 37907 ft | 454 kts | 272° |
| 2026-05-07 10:54 | 22.32418 | 117.03136 | 37908 ft | 453 kts | 272° |
| 2026-05-07 10:54 | 22.32284 | 116.96358 | 37911 ft | 453 kts | 272° |
| 2026-05-07 10:55 | 22.32145 | 116.89582 | 37896 ft | 454 kts | 272° |
| 2026-05-07 10:55 | 22.32075 | 116.86198 | 37617 ft | 453 kts | 272° |
| 2026-05-07 10:55 | 22.32004 | 116.82819 | 37339 ft | 451 kts | 272° |
| 2026-05-07 10:56 | 22.31931 | 116.79437 | 37055 ft | 449 kts | 272° |
| 2026-05-07 10:56 | 22.31860 | 116.76087 | 36776 ft | 446 kts | 272° |
| 2026-05-07 10:56 | 22.31787 | 116.72753 | 36497 ft | 446 kts | 272° |
| 2026-05-07 10:56 | 22.31716 | 116.69447 | 36219 ft | 446 kts | 272° |
| 2026-05-07 10:57 | 22.31643 | 116.66099 | 35938 ft | 447 kts | 272° |
| 2026-05-07 10:57 | 22.31570 | 116.62749 | 35660 ft | 447 kts | 272° |
| 2026-05-07 10:57 | 22.31496 | 116.59408 | 35380 ft | 448 kts | 271° |
| 2026-05-07 10:57 | 22.31418 | 116.56031 | 35096 ft | 449 kts | 271° |
| 2026-05-07 10:58 | 22.31342 | 116.52662 | 34815 ft | 451 kts | 271° |
| 2026-05-07 10:58 | 22.31265 | 116.49321 | 34540 ft | 452 kts | 271° |
| 2026-05-07 10:58 | 22.31193 | 116.46213 | 34283 ft | 452 kts | 271° |
| 2026-05-07 10:58 | 22.31114 | 116.42823 | 34002 ft | 454 kts | 271° |
| 2026-05-07 10:59 | 22.31034 | 116.39429 | 33723 ft | 455 kts | 271° |
| 2026-05-07 10:59 | 22.30952 | 116.36011 | 33444 ft | 456 kts | 271° |
| 2026-05-07 10:59 | 22.30869 | 116.32574 | 33165 ft | 457 kts | 271° |
| 2026-05-07 10:59 | 22.30786 | 116.29161 | 32887 ft | 458 kts | 270° |
| 2026-05-07 11:00 | 22.30703 | 116.25719 | 32614 ft | 459 kts | 270° |
| 2026-05-07 11:00 | 22.30619 | 116.22299 | 32362 ft | 460 kts | 270° |
| 2026-05-07 11:00 | 22.30534 | 116.18876 | 32101 ft | 461 kts | 270° |
| 2026-05-07 11:00 | 22.30446 | 116.15404 | 31705 ft | 462 kts | 270° |
| 2026-05-07 11:01 | 22.30359 | 116.11927 | 31163 ft | 463 kts | 270° |
| 2026-05-07 11:01 | 22.30273 | 116.08495 | 30499 ft | 464 kts | 270° |
| 2026-05-07 11:01 | 22.30184 | 116.05030 | 29795 ft | 464 kts | 270° |
| 2026-05-07 11:01 | 22.30096 | 116.01559 | 29027 ft | 466 kts | 270° |
| 2026-05-07 11:02 | 22.30006 | 115.98086 | 28272 ft | 467 kts | 270° |
| 2026-05-07 11:02 | 22.29915 | 115.94610 | 27621 ft | 464 kts | 269° |
| 2026-05-07 11:02 | 22.29823 | 115.91158 | 27165 ft | 458 kts | 270° |
| 2026-05-07 11:02 | 22.29731 | 115.87746 | 26593 ft | 454 kts | 269° |
| 2026-05-07 11:03 | 22.29641 | 115.84364 | 25921 ft | 452 kts | 269° |
| 2026-05-07 11:03 | 22.29550 | 115.81004 | 25593 ft | 442 kts | 269° |
| 2026-05-07 11:03 | 22.29463 | 115.77747 | 25407 ft | 430 kts | 270° |
| 2026-05-07 11:03 | 22.29380 | 115.74580 | 25045 ft | 423 kts | 270° |
| 2026-05-07 11:04 | 22.29297 | 115.71363 | 24358 ft | 432 kts | 269° |
| 2026-05-07 11:04 | 22.29212 | 115.68139 | 23985 ft | 438 kts | 269° |
| 2026-05-07 11:04 | 22.29120 | 115.64831 | 23897 ft | 440 kts | 269° |
| 2026-05-07 11:04 | 22.29028 | 115.61549 | 23898 ft | 441 kts | 269° |
| 2026-05-07 11:05 | 22.28936 | 115.58229 | 23806 ft | 436 kts | 269° |
| 2026-05-07 11:05 | 22.28846 | 115.55002 | 23277 ft | 433 kts | 269° |
| 2026-05-07 11:05 | 22.28758 | 115.51780 | 22607 ft | 432 kts | 269° |
| 2026-05-07 11:05 | 22.28670 | 115.48561 | 22010 ft | 430 kts | 269° |
| 2026-05-07 11:06 | 22.28581 | 115.45339 | 21540 ft | 424 kts | 269° |
| 2026-05-07 11:06 | 22.28493 | 115.42239 | 21363 ft | 411 kts | 269° |
| 2026-05-07 11:06 | 22.28406 | 115.39195 | 20949 ft | 396 kts | 269° |
| 2026-05-07 11:06 | 22.28325 | 115.36319 | 20386 ft | 379 kts | 269° |
| 2026-05-07 11:07 | 22.28244 | 115.33529 | 20182 ft | 365 kts | 269° |
| 2026-05-07 11:07 | 22.28161 | 115.30792 | 19807 ft | 362 kts | 269° |
| 2026-05-07 11:07 | 22.27842 | 115.28118 | 19291 ft | 363 kts | 255° |
| 2026-05-07 11:07 | 22.26997 | 115.25573 | 18876 ft | 361 kts | 250° |
| 2026-05-07 11:08 | 22.26067 | 115.23068 | 18466 ft | 359 kts | 249° |
| 2026-05-07 11:08 | 22.25155 | 115.20578 | 18028 ft | 357 kts | 250° |
| 2026-05-07 11:08 | 22.24263 | 115.18079 | 17606 ft | 355 kts | 250° |
| 2026-05-07 11:08 | 22.23398 | 115.15601 | 17205 ft | 352 kts | 251° |
| 2026-05-07 11:09 | 22.22555 | 115.13151 | 16790 ft | 350 kts | 251° |
| 2026-05-07 11:09 | 22.21713 | 115.10683 | 16371 ft | 348 kts | 251° |
| 2026-05-07 11:09 | 22.20887 | 115.08247 | 15962 ft | 346 kts | 251° |
| 2026-05-07 11:09 | 22.20065 | 115.05820 | 15543 ft | 345 kts | 251° |
| 2026-05-07 11:10 | 22.19245 | 115.03395 | 15124 ft | 343 kts | 251° |
| 2026-05-07 11:10 | 22.18438 | 115.01004 | 14722 ft | 341 kts | 251° |
| 2026-05-07 11:10 | 22.17619 | 114.98581 | 14284 ft | 340 kts | 251° |
| 2026-05-07 11:10 | 22.16814 | 114.96195 | 13906 ft | 337 kts | 251° |
| 2026-05-07 11:11 | 22.16015 | 114.93832 | 13588 ft | 336 kts | 251° |
| 2026-05-07 11:11 | 22.15220 | 114.91479 | 13286 ft | 335 kts | 251° |
| 2026-05-07 11:11 | 22.14424 | 114.89126 | 12960 ft | 334 kts | 251° |
| 2026-05-07 11:11 | 22.13630 | 114.86777 | 12592 ft | 332 kts | 251° |
| 2026-05-07 11:12 | 22.12850 | 114.84473 | 12206 ft | 330 kts | 251° |
| 2026-05-07 11:12 | 22.12066 | 114.82156 | 11771 ft | 329 kts | 251° |
| 2026-05-07 11:12 | 22.11279 | 114.79832 | 11332 ft | 327 kts | 251° |
| 2026-05-07 11:12 | 22.10580 | 114.77535 | 10912 ft | 325 kts | 255° |
| 2026-05-07 11:13 | 22.10006 | 114.75193 | 10720 ft | 315 kts | 256° |
| 2026-05-07 11:13 | 22.09483 | 114.72954 | 10544 ft | 306 kts | 256° |
| 2026-05-07 11:13 | 22.08979 | 114.70761 | 10378 ft | 296 kts | 257° |
| 2026-05-07 11:13 | 22.08494 | 114.68642 | 10199 ft | 288 kts | 257° |
| 2026-05-07 11:14 | 22.08020 | 114.66560 | 9879 ft | 286 kts | 257° |
| 2026-05-07 11:14 | 22.07591 | 114.64473 | 9499 ft | 286 kts | 262° |
| 2026-05-07 11:14 | 22.07393 | 114.62358 | 9161 ft | 284 kts | 266° |
| 2026-05-07 11:14 | 22.07264 | 114.60253 | 9030 ft | 282 kts | 266° |
| 2026-05-07 11:15 | 22.07147 | 114.58125 | 9027 ft | 285 kts | 266° |
| 2026-05-07 11:15 | 22.07030 | 114.55981 | 9026 ft | 285 kts | 267° |
| 2026-05-07 11:15 | 22.06912 | 114.53859 | 9026 ft | 285 kts | 267° |
| 2026-05-07 11:15 | 22.06792 | 114.51720 | 9024 ft | 285 kts | 267° |
| 2026-05-07 11:16 | 22.06671 | 114.49590 | 9023 ft | 285 kts | 267° |
| 2026-05-07 11:16 | 22.06554 | 114.47482 | 9020 ft | 284 kts | 267° |
| 2026-05-07 11:16 | 22.06437 | 114.45360 | 8782 ft | 281 kts | 267° |
| 2026-05-07 11:16 | 22.06324 | 114.43276 | 8390 ft | 281 kts | 267° |
| 2026-05-07 11:17 | 22.06210 | 114.41183 | 8041 ft | 280 kts | 267° |
| 2026-05-07 11:17 | 22.06103 | 114.39072 | 7695 ft | 279 kts | 269° |
| 2026-05-07 11:17 | 22.06110 | 114.36987 | 7338 ft | 279 kts | 271° |
| 2026-05-07 11:17 | 22.06162 | 114.34915 | 6988 ft | 279 kts | 271° |
| 2026-05-07 11:18 | 22.06223 | 114.32816 | 6646 ft | 278 kts | 271° |
| 2026-05-07 11:18 | 22.06284 | 114.30749 | 6331 ft | 276 kts | 271° |
| 2026-05-07 11:18 | 22.06347 | 114.28680 | 6008 ft | 275 kts | 271° |
| 2026-05-07 11:18 | 22.06433 | 114.26636 | 5688 ft | 273 kts | 274° |
| 2026-05-07 11:19 | 22.06603 | 114.24593 | 5349 ft | 273 kts | 275° |
| 2026-05-07 11:19 | 22.06792 | 114.22572 | 5188 ft | 273 kts | 275° |
| 2026-05-07 11:19 | 22.06982 | 114.20528 | 5069 ft | 273 kts | 275° |
| 2026-05-07 11:19 | 22.07165 | 114.18514 | 4953 ft | 274 kts | 275° |
| 2026-05-07 11:20 | 22.07347 | 114.16461 | 4831 ft | 272 kts | 275° |
| 2026-05-07 11:20 | 22.07525 | 114.14445 | 4635 ft | 266 kts | 275° |
| 2026-05-07 11:20 | 22.07696 | 114.12504 | 4524 ft | 257 kts | 274° |
| 2026-05-07 11:20 | 22.07861 | 114.10614 | 4511 ft | 244 kts | 275° |
| 2026-05-07 11:21 | 22.08016 | 114.08836 | 4332 ft | 240 kts | 274° |
| 2026-05-07 11:21 | 22.08172 | 114.07040 | 4045 ft | 240 kts | 274° |
| 2026-05-07 11:21 | 22.08326 | 114.05256 | 3771 ft | 240 kts | 274° |
| 2026-05-07 11:21 | 22.08481 | 114.03455 | 3503 ft | 239 kts | 274° |
| 2026-05-07 11:22 | 22.08634 | 114.01688 | 3240 ft | 238 kts | 274° |
| 2026-05-07 11:22 | 22.08790 | 113.99896 | 3033 ft | 236 kts | 274° |
| 2026-05-07 11:22 | 22.08941 | 113.98141 | 3017 ft | 238 kts | 274° |
| 2026-05-07 11:22 | 22.09096 | 113.96345 | 3016 ft | 239 kts | 274° |
| 2026-05-07 11:23 | 22.09247 | 113.94576 | 3018 ft | 239 kts | 274° |
| 2026-05-07 11:23 | 22.09399 | 113.92789 | 3017 ft | 238 kts | 274° |
| 2026-05-07 11:23 | 22.09553 | 113.91003 | 3022 ft | 238 kts | 274° |
| 2026-05-07 11:23 | 22.09704 | 113.89235 | 3020 ft | 238 kts | 274° |
| 2026-05-07 11:24 | 22.09858 | 113.87444 | 3026 ft | 238 kts | 274° |
| 2026-05-07 11:24 | 22.10008 | 113.85684 | 3029 ft | 238 kts | 274° |
| 2026-05-07 11:24 | 22.10159 | 113.83898 | 3030 ft | 238 kts | 274° |
| 2026-05-07 11:24 | 22.10310 | 113.82128 | 3032 ft | 238 kts | 274° |
| 2026-05-07 11:25 | 22.10464 | 113.80325 | 3035 ft | 239 kts | 274° |
| 2026-05-07 11:25 | 22.10736 | 113.78599 | 3014 ft | 232 kts | 292° |
| 2026-05-07 11:25 | 22.11623 | 113.77199 | 2999 ft | 221 kts | 319° |
| 2026-05-07 11:25 | 22.12932 | 113.76323 | 2890 ft | 220 kts | 335° |
| 2026-05-07 11:26 | 22.14333 | 113.75656 | 2780 ft | 219 kts | 337° |
| 2026-05-07 11:26 | 22.15724 | 113.75010 | 2730 ft | 219 kts | 336° |
| 2026-05-07 11:26 | 22.17089 | 113.74359 | 2663 ft | 207 kts | 336° |
| 2026-05-07 11:26 | 22.18372 | 113.73734 | 2616 ft | 199 kts | 336° |
| 2026-05-07 11:27 | 22.19642 | 113.73106 | 2578 ft | 198 kts | 335° |
| 2026-05-07 11:27 | 22.20894 | 113.72483 | 2531 ft | 198 kts | 335° |
| 2026-05-07 11:27 | 22.22165 | 113.71850 | 2464 ft | 199 kts | 336° |
| 2026-05-07 11:27 | 22.23482 | 113.71518 | 2359 ft | 195 kts | 11° |
| 2026-05-07 11:28 | 22.24640 | 113.72199 | 2310 ft | 191 kts | 44° |
| 2026-05-07 11:28 | 22.25628 | 113.73173 | 2365 ft | 191 kts | 45° |
| 2026-05-07 11:28 | 22.26615 | 113.74148 | 2415 ft | 189 kts | 45° |
| 2026-05-07 11:28 | 22.27560 | 113.75111 | 2178 ft | 186 kts | 54° |
| 2026-05-07 11:29 | 22.28236 | 113.76286 | 2030 ft | 184 kts | 68° |
| 2026-05-07 11:29 | 22.28721 | 113.77515 | 1984 ft | 168 kts | 72° |
| 2026-05-07 11:29 | 22.29108 | 113.78671 | 1796 ft | 159 kts | 75° |
| 2026-05-07 11:29 | 22.29462 | 113.79800 | 1590 ft | 157 kts | 75° |
| 2026-05-07 11:30 | 22.29807 | 113.80892 | 1380 ft | 150 kts | 75° |
| 2026-05-07 11:30 | 22.30145 | 113.81956 | 1195 ft | 151 kts | 75° |
| 2026-05-07 11:30 | 22.30485 | 113.83019 | 1015 ft | 149 kts | 74° |
| 2026-05-07 11:30 | 22.30829 | 113.84089 | 827 ft | 151 kts | 74° |
| 2026-05-07 11:31 | 22.31170 | 113.85152 | 634 ft | 150 kts | 73° |
| 2026-05-07 11:31 | 22.31512 | 113.86211 | 434 ft | 147 kts | 73° |
| 2026-05-07 11:31 | 22.31850 | 113.87260 | 246 ft | 150 kts | 74° |
| 2026-05-07 11:31 | 22.32198 | 113.88335 | 71 ft | 151 kts | 73° |
| 2026-05-07 11:32 | 22.32687 | 113.89875 | 40 ft | 50 kts | 70° |
| 2026-05-07 11:32 | 22.32802 | 113.90231 | 40 ft | 49 kts | 76° |
| 2026-05-07 11:32 | 22.32797 | 113.90556 | 40 ft | 26 kts | 100° |
| 2026-05-07 11:33 | 22.32794 | 113.90756 | 40 ft | 27 kts | 75° |
| 2026-05-07 11:33 | 22.32858 | 113.90958 | 40 ft | 29 kts | 70° |
| 2026-05-07 11:33 | 22.32928 | 113.91175 | 40 ft | 30 kts | 71° |
| 2026-05-07 11:33 | 22.33000 | 113.91396 | 40 ft | 32 kts | 71° |
| 2026-05-07 11:34 | 22.33074 | 113.91627 | 40 ft | 33 kts | 71° |
| 2026-05-07 11:34 | 22.33152 | 113.91869 | 40 ft | 33 kts | 71° |
| 2026-05-07 11:34 | 22.33202 | 113.92028 | 40 ft | 16 kts | 71° |
| 2026-05-07 11:34 | 22.33159 | 113.92130 | 40 ft | 18 kts | 157° |
| 2026-05-07 11:35 | 22.33030 | 113.92178 | 41 ft | 21 kts | 160° |
| 2026-05-07 11:35 | 22.32881 | 113.92234 | 40 ft | 23 kts | 161° |
| 2026-05-07 11:35 | 22.32716 | 113.92295 | 41 ft | 26 kts | 161° |
| 2026-05-07 11:35 | 22.32537 | 113.92362 | 41 ft | 28 kts | 161° |
| 2026-05-07 11:36 | 22.32369 | 113.92425 | 41 ft | 17 kts | 160° |
| 2026-05-07 11:36 | 22.32339 | 113.92436 | 40 ft | 0 kts | 161° |
| 2026-05-07 11:37 | 22.32322 | 113.92442 | 41 ft | 6 kts | 161° |
| 2026-05-07 11:37 | 22.32252 | 113.92504 | 41 ft | 16 kts | 95° |
| 2026-05-07 11:37 | 22.32280 | 113.92630 | 41 ft | 18 kts | 71° |
| 2026-05-07 11:38 | 22.32295 | 113.92718 | 41 ft | 9 kts | 105° |
| 2026-05-07 11:38 | 22.32256 | 113.92760 | 41 ft | 9 kts | 153° |
| 2026-05-07 11:38 | 22.32223 | 113.92775 | 41 ft | 0 kts | 160° |
| 2026-05-07 11:38 | 22.32223 | 113.92776 | 41 ft | 0 kts | 161° |
| 2026-05-07 11:39 | 22.32216 | 113.92778 | 41 ft | 2 kts | 161° |
| 2026-05-07 11:39 | 22.32178 | 113.92791 | 41 ft | 13 kts | 162° |
| 2026-05-07 11:39 | 22.32065 | 113.92833 | 41 ft | 18 kts | 160° |
| 2026-05-07 11:39 | 22.31970 | 113.92870 | 41 ft | 5 kts | 159° |
| 2026-05-07 11:40 | 22.31941 | 113.92882 | 41 ft | 1 kts | 159° |
| 2026-05-07 11:40 | 22.31930 | 113.92886 | 41 ft | 0 kts | 159° |
| 2026-05-07 11:41 | 22.31926 | 113.92888 | 41 ft | 2 kts | 159° |
| 2026-05-07 11:41 | 22.31896 | 113.92900 | 41 ft | 7 kts | 159° |
| 2026-05-07 11:41 | 22.31835 | 113.92901 | 41 ft | 10 kts | 210° |
| 2026-05-07 11:41 | 22.31757 | 113.92868 | 41 ft | 13 kts | 178° |
| 2026-05-07 11:42 | 22.31669 | 113.92893 | 41 ft | 0 kts | 161° |
| 2026-05-07 11:42 | 22.31648 | 113.92901 | 41 ft | 7 kts | 160° |
| 2026-05-07 11:42 | 22.31574 | 113.92934 | 41 ft | 13 kts | 146° |
| 2026-05-07 11:43 | 22.31503 | 113.92973 | 41 ft | 7 kts | 163° |
| 2026-05-07 11:43 | 22.31465 | 113.92988 | 41 ft | 4 kts | 160° |
| 2026-05-07 11:43 | 22.31461 | 113.92989 | 41 ft | 0 kts | 160° |